createdAt,value
2023-04-11T00:00:16.698Z,14.01
2023-04-11T00:02:43.686Z,14.22
2023-04-11T00:05:10.441Z,14.00
2023-04-11T00:07:37.061Z,14.02
2023-04-11T00:10:04.289Z,14.05
2023-04-11T00:12:30.860Z,13.89
2023-04-11T00:14:57.413Z,13.74
2023-04-11T00:17:24.331Z,13.63
2023-04-11T00:19:53.582Z,13.68
2023-04-11T00:22:20.156Z,13.78
2023-04-11T00:24:46.684Z,13.53
2023-04-11T00:27:13.238Z,13.71
2023-04-11T00:29:40.610Z,13.78
2023-04-11T00:32:07.324Z,13.66
2023-04-11T00:34:34.339Z,13.72
2023-04-11T00:37:01.698Z,13.71
2023-04-11T00:39:30.474Z,13.77
2023-04-11T00:42:05.650Z,13.54
2023-04-11T00:44:32.312Z,13.41
2023-04-11T00:47:00.460Z,13.13
2023-04-11T00:49:27.117Z,13.23
2023-04-11T00:51:54.372Z,13.17
2023-04-11T00:54:21.121Z,13.12
2023-04-11T00:56:47.861Z,13.10
2023-04-11T00:59:14.464Z,13.34
2023-04-11T01:01:41.774Z,13.30
2023-04-11T01:04:08.710Z,13.31
2023-04-11T01:06:36.500Z,13.27
2023-04-11T01:09:04.938Z,13.45
2023-04-11T01:11:32.644Z,13.34
2023-04-11T01:13:59.238Z,13.42
2023-04-11T01:16:25.940Z,13.44
2023-04-11T01:18:52.580Z,13.49
2023-04-11T01:21:20.630Z,13.51
2023-04-11T01:23:48.923Z,13.59
2023-04-11T01:26:16.236Z,13.80
2023-04-11T01:28:42.867Z,13.76
2023-04-11T01:31:09.550Z,13.68
2023-04-11T01:33:36.482Z,13.73
2023-04-11T01:36:03.666Z,13.59
2023-04-11T01:38:30.421Z,13.43
2023-04-11T01:40:58.200Z,13.39
2023-04-11T01:43:24.796Z,13.37
2023-04-11T01:45:51.780Z,13.43
2023-04-11T01:48:18.396Z,13.55
2023-04-11T01:50:45.043Z,13.55
2023-04-11T01:53:11.593Z,13.50
2023-04-11T01:55:38.252Z,13.59
2023-04-11T01:58:04.749Z,13.51
2023-04-11T02:00:32.565Z,13.52
2023-04-11T02:02:59.286Z,13.60
2023-04-11T02:05:25.935Z,13.63
2023-04-11T02:07:52.766Z,13.70
2023-04-11T02:10:19.638Z,13.57
2023-04-11T02:12:46.314Z,13.62
2023-04-11T02:15:12.877Z,13.77
2023-04-11T02:17:45.087Z,13.82
2023-04-11T02:20:13.596Z,13.73
2023-04-11T02:22:40.877Z,13.69
2023-04-11T02:25:08.187Z,13.83
2023-04-11T02:27:34.983Z,13.83
2023-04-11T02:30:05.732Z,14.07
2023-04-11T02:32:37.833Z,14.04
2023-04-11T02:35:05.298Z,14.12
2023-04-11T02:37:31.856Z,14.13
2023-04-11T02:39:58.537Z,14.07
2023-04-11T02:42:25.108Z,13.83
2023-04-11T02:44:55.673Z,13.41
2023-04-11T02:47:22.265Z,13.21
2023-04-11T02:49:48.919Z,13.28
2023-04-11T02:52:15.904Z,12.94
2023-04-11T02:54:42.482Z,12.99
2023-04-11T02:57:09.046Z,13.04
2023-04-11T02:59:35.596Z,12.98
2023-04-11T03:02:02.220Z,12.93
2023-04-11T03:04:29.041Z,12.66
2023-04-11T03:06:55.707Z,12.63
2023-04-11T03:09:23.498Z,12.76
2023-04-11T03:11:50.172Z,12.80
2023-04-11T03:14:16.818Z,12.66
2023-04-11T03:16:43.384Z,12.80
2023-04-11T03:19:09.877Z,12.79
2023-04-11T03:21:36.345Z,12.76
2023-04-11T03:24:03.027Z,12.50
2023-04-11T03:26:29.630Z,12.48
2023-04-11T03:28:56.650Z,12.51
2023-04-11T03:31:23.570Z,12.46
2023-04-11T03:33:50.282Z,12.65
2023-04-11T03:36:17.268Z,12.66
2023-04-11T03:38:43.782Z,12.58
2023-04-11T03:41:10.513Z,12.60
2023-04-11T03:43:37.129Z,12.82
2023-04-11T03:46:03.812Z,12.60
2023-04-11T03:48:31.042Z,12.61
2023-04-11T03:50:57.602Z,12.60
2023-04-11T03:53:24.173Z,12.73
2023-04-11T03:55:52.789Z,12.73
2023-04-11T03:58:19.288Z,12.65
2023-04-11T04:00:46.538Z,12.69
2023-04-11T04:03:13.792Z,12.72
2023-04-11T04:05:41.469Z,12.78
2023-04-11T04:08:08.373Z,12.91
2023-04-11T04:10:34.926Z,13.23
2023-04-11T04:13:01.617Z,12.94
2023-04-11T04:15:28.205Z,12.93
2023-04-11T04:17:54.837Z,12.72
2023-04-11T04:20:21.529Z,12.47
2023-04-11T04:22:48.078Z,12.33
2023-04-11T04:25:15.956Z,12.50
2023-04-11T04:27:44.474Z,12.43
2023-04-11T04:30:15.741Z,12.16
2023-04-11T04:32:44.086Z,12.13
2023-04-11T04:35:11.798Z,12.28
2023-04-11T04:37:45.827Z,12.38
2023-04-11T04:40:14.005Z,12.09
2023-04-11T04:42:44.082Z,12.03
2023-04-11T04:45:13.720Z,11.90
2023-04-11T04:47:40.584Z,11.88
2023-04-11T04:50:07.847Z,11.67
2023-04-11T04:52:34.770Z,11.68
2023-04-11T04:55:01.703Z,11.95
2023-04-11T04:57:29.545Z,11.86
2023-04-11T04:59:58.836Z,11.52
2023-04-11T05:02:26.857Z,11.44
2023-04-11T05:04:54.451Z,11.38
2023-04-11T05:07:21.040Z,11.48
2023-04-11T05:09:47.777Z,11.44
2023-04-11T05:12:16.065Z,11.59
2023-04-11T05:14:42.958Z,11.50
2023-04-11T05:17:09.542Z,11.47
2023-04-11T05:19:36.136Z,11.39
2023-04-11T05:22:02.798Z,11.29
2023-04-11T05:24:29.354Z,11.17
2023-04-11T05:26:56.763Z,11.11
2023-04-11T05:29:23.411Z,11.19
2023-04-11T05:31:49.976Z,11.43
2023-04-11T05:34:16.534Z,11.38
2023-04-11T05:36:43.131Z,11.15
2023-04-11T05:39:09.703Z,11.44
2023-04-11T05:41:36.245Z,11.36
2023-04-11T05:44:02.895Z,11.52
2023-04-11T05:46:30.092Z,11.24
2023-04-11T05:48:58.052Z,11.32
2023-04-11T05:51:24.771Z,11.10
2023-04-11T05:53:51.276Z,11.10
2023-04-11T05:56:17.993Z,11.29
2023-04-11T05:58:44.599Z,11.33
2023-04-11T06:01:18.273Z,10.96
2023-04-11T06:03:46.303Z,11.18
2023-04-11T06:06:13.408Z,11.18
2023-04-11T06:08:40.353Z,11.22
2023-04-11T06:11:07.004Z,11.30
2023-04-11T06:13:33.482Z,11.58
2023-04-11T06:16:00.264Z,11.74
2023-04-11T06:18:26.821Z,11.68
2023-04-11T06:20:53.971Z,11.90
2023-04-11T06:23:20.653Z,11.60
2023-04-11T06:25:47.287Z,11.74
2023-04-11T06:28:14.212Z,11.87
2023-04-11T06:30:40.839Z,11.77
2023-04-11T06:33:07.445Z,12.03
2023-04-11T06:35:34.071Z,11.71
2023-04-11T06:38:00.730Z,12.00
2023-04-11T06:40:27.256Z,11.82
2023-04-11T06:42:53.874Z,11.79
2023-04-11T06:45:20.662Z,11.85
2023-04-11T06:47:47.218Z,11.88
2023-04-11T06:50:13.862Z,12.05
2023-04-11T06:52:40.408Z,12.03
2023-04-11T06:55:07.660Z,12.17
2023-04-11T06:57:34.392Z,12.13
2023-04-11T07:00:00.952Z,11.97
2023-04-11T07:02:27.663Z,12.12
2023-04-11T07:04:54.397Z,12.17
2023-04-11T07:07:21.406Z,12.37
2023-04-11T07:09:48.157Z,12.55
2023-04-11T07:12:14.691Z,12.77
2023-04-11T07:14:41.253Z,12.71
2023-04-11T07:17:07.792Z,12.40
2023-04-11T07:19:34.409Z,12.46
2023-04-11T07:22:00.964Z,12.14
2023-04-11T07:24:30.516Z,12.13
2023-04-11T07:26:58.848Z,12.26
2023-04-11T07:29:25.407Z,12.26
2023-04-11T07:31:52.800Z,12.55
2023-04-11T07:34:19.404Z,12.77
2023-04-11T07:36:45.981Z,12.41
2023-04-11T07:39:14.205Z,12.44
2023-04-11T07:41:40.865Z,12.29
2023-04-11T07:44:07.901Z,12.36
2023-04-11T07:46:34.438Z,12.62
2023-04-11T07:49:01.287Z,12.54
2023-04-11T07:51:27.894Z,12.65
2023-04-11T07:53:54.702Z,12.52
2023-04-11T07:56:21.383Z,12.44
2023-04-11T07:58:47.966Z,12.53
2023-04-11T08:01:25.155Z,12.42
2023-04-11T08:03:53.798Z,12.04
2023-04-11T08:06:20.931Z,12.35
2023-04-11T08:08:48.618Z,12.49
2023-04-11T08:11:16.056Z,12.60
2023-04-11T08:13:43.917Z,12.54
2023-04-11T08:16:11.902Z,12.48
2023-04-11T08:18:42.228Z,12.67
2023-04-11T08:21:12.696Z,12.70
2023-04-11T08:23:39.975Z,13.01
2023-04-11T08:26:07.692Z,13.04
2023-04-11T08:28:34.557Z,12.88
2023-04-11T08:31:04.006Z,13.33
2023-04-11T08:33:30.908Z,13.04
2023-04-11T08:35:57.608Z,13.04
2023-04-11T08:38:24.320Z,13.52
2023-04-11T08:40:51.491Z,13.61
2023-04-11T08:43:19.067Z,14.86
2023-04-11T08:45:45.892Z,14.48
2023-04-11T08:48:12.614Z,14.60
2023-04-11T08:50:41.576Z,13.76
2023-04-11T08:53:08.800Z,13.67
2023-04-11T08:55:36.004Z,13.48
2023-04-11T08:58:03.797Z,12.97
2023-04-11T09:00:32.398Z,13.19
2023-04-11T09:03:01.760Z,12.75
2023-04-11T09:05:30.858Z,12.78
2023-04-11T09:07:59.139Z,12.88
2023-04-11T09:10:27.098Z,13.04
2023-04-11T09:12:57.256Z,12.83
2023-04-11T09:15:26.446Z,13.13
2023-04-11T09:17:54.161Z,12.79
2023-04-11T09:20:22.404Z,12.52
2023-04-11T09:22:50.184Z,13.38
2023-04-11T09:25:18.553Z,13.76
2023-04-11T09:27:45.496Z,13.68
2023-04-11T09:30:22.845Z,14.49
2023-04-11T09:32:53.195Z,14.41
2023-04-11T09:35:25.117Z,14.28
2023-04-11T09:37:59.186Z,13.77
2023-04-11T09:40:27.633Z,14.62
2023-04-11T09:42:58.605Z,13.95
2023-04-11T09:45:27.082Z,14.17
2023-04-11T09:47:56.764Z,13.49
2023-04-11T09:50:24.496Z,13.86
2023-04-11T09:52:52.886Z,13.55
2023-04-11T09:55:21.168Z,13.31
2023-04-11T09:57:50.474Z,13.58
2023-04-11T10:00:20.157Z,13.19
2023-04-11T10:02:49.458Z,13.33
2023-04-11T10:05:18.246Z,13.43
2023-04-11T10:07:52.380Z,13.13
2023-04-11T10:10:21.215Z,12.96
2023-04-11T10:12:48.855Z,13.27
2023-04-11T10:15:16.174Z,13.49
2023-04-11T10:17:43.075Z,13.49
2023-04-11T10:20:49.809Z,13.84
2023-04-11T10:23:17.259Z,14.25
2023-04-11T10:25:50.661Z,14.65
2023-04-11T10:28:37.850Z,14.53
2023-04-11T10:31:05.912Z,14.97
2023-04-11T10:33:33.607Z,14.96
2023-04-11T10:36:11.007Z,14.71
2023-04-11T10:38:44.182Z,14.79
2023-04-11T10:41:20.076Z,14.25
2023-04-11T10:43:47.295Z,14.38
2023-04-11T10:46:22.393Z,14.04
2023-04-11T10:49:04.139Z,14.32
2023-04-11T10:51:34.787Z,14.42
2023-04-11T10:54:02.142Z,14.54
2023-04-11T10:56:42.721Z,14.51
2023-04-11T10:59:31.452Z,13.84
2023-04-11T11:02:00.798Z,14.17
2023-04-11T11:04:38.697Z,14.57
2023-04-11T11:07:08.360Z,14.63
2023-04-11T11:09:35.501Z,15.16
2023-04-11T11:12:15.694Z,16.06
2023-04-11T11:14:44.247Z,15.73
2023-04-11T11:17:15.909Z,16.15
2023-04-11T11:19:47.182Z,16.34
2023-04-11T11:22:18.432Z,16.44
2023-04-11T11:24:45.081Z,16.04
2023-04-11T11:27:29.750Z,16.30
2023-04-11T11:29:56.266Z,16.21
2023-04-11T11:32:29.998Z,17.63
2023-04-11T11:34:57.732Z,18.37
2023-04-11T11:37:24.983Z,16.75
2023-04-11T11:39:51.816Z,16.54
2023-04-11T11:42:18.617Z,17.53
2023-04-11T11:44:45.185Z,16.01
2023-04-11T11:47:15.397Z,16.95
2023-04-11T11:49:55.550Z,16.87
2023-04-11T11:52:34.186Z,17.72
2023-04-11T11:55:02.390Z,17.45
2023-04-11T11:57:28.957Z,18.14
2023-04-11T11:59:56.607Z,17.99
2023-04-11T12:02:24.446Z,18.40
2023-04-11T12:04:51.836Z,19.03
2023-04-11T12:07:22.734Z,18.85
2023-04-11T12:09:49.716Z,19.42
2023-04-11T12:12:19.015Z,19.53
2023-04-11T12:14:54.978Z,19.57
2023-04-11T12:17:21.580Z,19.80
2023-04-11T12:19:48.189Z,19.55
2023-04-11T12:22:14.735Z,19.01
2023-04-11T12:24:41.330Z,18.48
2023-04-11T12:27:09.050Z,18.85
2023-04-11T12:29:37.186Z,19.50
2023-04-11T12:32:03.981Z,18.60
2023-04-11T12:34:30.507Z,18.55
2023-04-11T12:36:58.086Z,18.99
2023-04-11T12:39:24.627Z,18.71
2023-04-11T12:41:51.177Z,17.89
2023-04-11T12:44:17.765Z,19.41
2023-04-11T12:46:44.384Z,18.91
2023-04-11T12:49:10.961Z,18.56
2023-04-11T12:51:37.512Z,18.84
2023-04-11T12:54:04.821Z,17.42
2023-04-11T12:56:31.370Z,17.68
2023-04-11T12:58:58.091Z,18.26
2023-04-11T13:01:24.854Z,17.88
2023-04-11T13:03:51.571Z,17.21
2023-04-11T13:06:19.095Z,18.24
2023-04-11T13:08:45.739Z,18.99
2023-04-11T13:11:12.306Z,19.36
2023-04-11T13:13:38.830Z,19.37
2023-04-11T13:16:06.519Z,17.54
2023-04-11T13:18:33.017Z,17.93
2023-04-11T13:20:59.477Z,18.63
2023-04-11T13:23:25.995Z,17.80
2023-04-11T13:25:52.679Z,17.84
2023-04-11T13:28:19.384Z,18.25
2023-04-11T13:30:46.358Z,18.64
2023-04-11T13:33:12.863Z,17.85
2023-04-11T13:35:39.355Z,19.00
2023-04-11T13:38:05.888Z,18.02
2023-04-11T13:40:32.847Z,18.74
2023-04-11T13:42:59.381Z,17.70
2023-04-11T13:45:26.130Z,17.85
2023-04-11T13:47:52.653Z,18.15
2023-04-11T13:50:19.168Z,18.29
2023-04-11T13:52:45.684Z,18.34
2023-04-11T13:55:12.267Z,17.79
2023-04-11T13:57:38.760Z,17.59
2023-04-11T14:00:11.882Z,17.67
2023-04-11T14:02:41.909Z,17.36
2023-04-11T14:05:09.529Z,17.76
2023-04-11T14:07:36.092Z,17.91
2023-04-11T14:10:02.738Z,17.76
2023-04-11T14:12:29.278Z,17.97
2023-04-11T14:14:55.941Z,17.62
2023-04-11T14:17:22.496Z,17.89
2023-04-11T14:19:49.054Z,17.26
2023-04-11T14:22:15.777Z,17.36
2023-04-11T14:24:42.470Z,17.57
2023-04-11T14:27:09.289Z,17.11
2023-04-11T14:29:37.539Z,16.95
2023-04-11T14:32:04.774Z,17.13
2023-04-11T14:34:31.593Z,16.39
2023-04-11T14:36:58.118Z,17.09
2023-04-11T14:39:24.695Z,16.73
2023-04-11T14:41:51.271Z,17.01
2023-04-11T14:44:17.878Z,16.70
2023-04-11T14:46:44.472Z,17.87
2023-04-11T14:49:11.609Z,18.43
2023-04-11T14:51:38.778Z,18.33
2023-04-11T14:54:05.642Z,17.98
2023-04-11T14:56:32.404Z,18.43
2023-04-11T14:58:58.996Z,17.85
2023-04-11T15:01:25.597Z,17.84
2023-04-11T15:03:52.265Z,18.05
2023-04-11T15:06:18.994Z,17.63
2023-04-11T15:08:45.824Z,17.77
2023-04-11T15:11:12.474Z,16.91
2023-04-11T15:13:39.070Z,17.65
2023-04-11T15:16:06.572Z,17.25
2023-04-11T15:18:33.392Z,17.73
2023-04-11T15:21:01.937Z,18.30
2023-04-11T15:23:28.764Z,18.40
2023-04-11T15:25:57.406Z,17.64
2023-04-11T15:28:25.433Z,17.05
2023-04-11T15:30:53.833Z,17.39
2023-04-11T15:33:22.136Z,17.27
2023-04-11T15:35:48.811Z,16.86
2023-04-11T15:38:16.303Z,16.16
2023-04-11T15:40:43.472Z,15.67
2023-04-11T15:43:10.413Z,16.00
2023-04-11T15:45:39.676Z,15.86
2023-04-11T15:48:06.658Z,15.75
2023-04-11T15:50:33.293Z,15.80
2023-04-11T15:52:59.901Z,15.82
2023-04-11T15:55:26.513Z,15.13
2023-04-11T15:57:53.194Z,15.17
2023-04-11T16:00:22.332Z,15.27
2023-04-11T16:02:49.848Z,15.66
2023-04-11T16:05:17.044Z,15.47
2023-04-11T16:07:43.754Z,15.49
2023-04-11T16:10:10.648Z,15.34
2023-04-11T16:12:37.500Z,15.61
2023-04-11T16:15:05.688Z,15.12
2023-04-11T16:17:32.806Z,14.93
2023-04-11T16:19:59.792Z,15.15
2023-04-11T16:22:26.389Z,15.38
2023-04-11T16:24:52.941Z,14.74
2023-04-11T16:27:20.064Z,14.86
2023-04-11T16:29:46.754Z,14.38
2023-04-11T16:32:13.284Z,14.62
2023-04-11T16:34:40.017Z,14.69
2023-04-11T16:37:06.735Z,14.55
2023-04-11T16:39:33.437Z,14.52
2023-04-11T16:42:00.044Z,14.23
2023-04-11T16:44:26.648Z,14.95
2023-04-11T16:46:53.344Z,15.00
2023-04-11T16:49:19.881Z,14.93
2023-04-11T16:51:46.507Z,14.47
2023-04-11T16:54:13.808Z,14.71
2023-04-11T16:56:40.782Z,14.11
2023-04-11T16:59:07.522Z,14.11
2023-04-11T17:01:34.290Z,13.97
2023-04-11T17:04:01.595Z,14.24
2023-04-11T17:06:28.710Z,13.55
2023-04-11T17:08:57.547Z,14.12
2023-04-11T17:11:24.725Z,13.98
2023-04-11T17:13:51.554Z,13.91
2023-04-11T17:16:18.347Z,13.65
2023-04-11T17:18:44.936Z,13.53
2023-04-11T17:21:11.603Z,13.16
2023-04-11T17:23:43.073Z,12.91
2023-04-11T17:26:10.762Z,12.95
2023-04-11T17:28:38.490Z,12.84
2023-04-11T17:31:12.983Z,12.85
2023-04-11T17:33:40.068Z,12.83
2023-04-11T17:36:07.010Z,12.68
2023-04-11T17:38:33.624Z,13.00
2023-04-11T17:41:11.173Z,12.96
2023-04-11T17:43:41.346Z,12.72
2023-04-11T17:46:08.908Z,12.82
2023-04-11T17:48:36.882Z,12.91
2023-04-11T17:51:06.829Z,12.92
2023-04-11T17:53:33.660Z,12.93
2023-04-11T17:56:06.571Z,13.20
2023-04-11T17:58:42.418Z,12.97
2023-04-11T18:01:11.178Z,13.02
2023-04-11T18:03:38.556Z,12.73
2023-04-11T18:06:06.438Z,12.48
2023-04-11T18:08:49.044Z,12.49
2023-04-11T18:11:17.498Z,12.89
2023-04-11T18:13:44.165Z,12.82
2023-04-11T18:16:11.559Z,12.78
2023-04-11T18:18:38.236Z,12.94
2023-04-11T18:21:06.698Z,12.62
2023-04-11T18:23:34.096Z,12.74
2023-04-11T18:26:00.614Z,12.57
2023-04-11T18:28:27.294Z,12.47
2023-04-11T18:30:53.995Z,13.12
2023-04-11T18:33:20.882Z,12.49
2023-04-11T18:35:47.788Z,12.43
2023-04-11T18:38:14.671Z,12.38
2023-04-11T18:40:41.332Z,12.15
2023-04-11T18:43:08.252Z,12.14
2023-04-11T18:45:35.334Z,12.09
2023-04-11T18:48:02.300Z,12.12
2023-04-11T18:50:30.774Z,12.22
2023-04-11T18:53:03.626Z,12.20
2023-04-11T18:55:31.840Z,12.15
2023-04-11T18:58:00.347Z,12.24
2023-04-11T19:00:29.480Z,12.15
2023-04-11T19:02:56.395Z,12.31
2023-04-11T19:05:25.514Z,12.57
2023-04-11T19:07:52.879Z,12.21
2023-04-11T19:10:19.781Z,12.24
2023-04-11T19:12:46.382Z,12.22
2023-04-11T19:15:13.051Z,12.25
2023-04-11T19:17:39.756Z,11.97
2023-04-11T19:20:07.316Z,11.88
2023-04-11T19:22:35.980Z,12.10
2023-04-11T19:25:02.613Z,12.03
2023-04-11T19:27:29.376Z,11.62
2023-04-11T19:29:56.916Z,11.90
2023-04-11T19:32:23.582Z,11.75
2023-04-11T19:34:50.644Z,11.92
2023-04-11T19:37:20.117Z,11.83
2023-04-11T19:39:46.663Z,11.91
2023-04-11T19:42:13.243Z,11.69
2023-04-11T19:44:40.025Z,11.62
2023-04-11T19:47:06.864Z,11.84
2023-04-11T19:49:33.486Z,12.12
2023-04-11T19:52:00.178Z,11.90
2023-04-11T19:54:26.895Z,11.89
2023-04-11T19:56:53.552Z,11.86
2023-04-11T19:59:20.353Z,11.80
2023-04-11T20:01:46.978Z,12.04
2023-04-11T20:04:15.701Z,11.84
2023-04-11T20:06:44.310Z,11.72
2023-04-11T20:09:11.858Z,11.61
2023-04-11T20:11:39.600Z,11.69
2023-04-11T20:14:07.720Z,11.70
2023-04-11T20:16:34.363Z,11.57
2023-04-11T20:19:01.727Z,11.71
2023-04-11T20:21:28.556Z,11.70
2023-04-11T20:23:55.344Z,11.63
2023-04-11T20:26:22.549Z,11.55
2023-04-11T20:28:50.452Z,11.73
2023-04-11T20:31:17.222Z,11.50
2023-04-11T20:33:45.434Z,11.38
2023-04-11T20:36:12.626Z,11.33
2023-04-11T20:38:39.228Z,11.41
2023-04-11T20:41:06.331Z,11.34
2023-04-11T20:43:33.034Z,11.51
2023-04-11T20:46:00.154Z,11.49
2023-04-11T20:48:30.307Z,11.48
2023-04-11T20:50:56.935Z,11.55
2023-04-11T20:53:23.686Z,11.41
2023-04-11T20:55:50.916Z,11.51
2023-04-11T20:58:20.712Z,11.82
2023-04-11T21:00:47.709Z,11.50
2023-04-11T21:03:14.540Z,11.69
2023-04-11T21:05:44.288Z,11.58
2023-04-11T21:08:13.975Z,11.39
2023-04-11T21:10:40.846Z,11.61
2023-04-11T21:13:07.410Z,11.46
2023-04-11T21:15:34.996Z,11.41
2023-04-11T21:18:02.069Z,11.65
2023-04-11T21:20:28.824Z,11.14
2023-04-11T21:22:55.730Z,11.13
2023-04-11T21:25:23.533Z,11.15
2023-04-11T21:27:50.333Z,11.24
2023-04-11T21:30:17.173Z,11.29
2023-04-11T21:32:43.902Z,11.17
2023-04-11T21:35:11.975Z,11.18
2023-04-11T21:37:38.987Z,11.03
2023-04-11T21:40:08.621Z,11.41
2023-04-11T21:42:35.315Z,11.19
2023-04-11T21:45:01.940Z,11.32
2023-04-11T21:47:28.684Z,11.56
2023-04-11T21:49:55.396Z,11.54
2023-04-11T21:52:22.033Z,11.32
2023-04-11T21:54:48.584Z,11.43
2023-04-11T21:57:15.231Z,11.15
2023-04-11T21:59:41.928Z,11.34
2023-04-11T22:02:08.655Z,11.57
2023-04-11T22:04:41.313Z,11.68
2023-04-11T22:07:15.596Z,11.43
2023-04-11T22:09:46.609Z,11.42
2023-04-11T22:12:17.440Z,11.54
2023-04-11T22:14:44.140Z,11.64
2023-04-11T22:17:11.007Z,11.55
2023-04-11T22:19:37.552Z,11.50
2023-04-11T22:22:08.221Z,11.63
2023-04-11T22:24:35.022Z,11.32
2023-04-11T22:27:04.540Z,11.24
2023-04-11T22:29:31.482Z,11.69
2023-04-11T22:31:59.549Z,11.38
2023-04-11T22:34:32.472Z,11.16
2023-04-11T22:36:59.090Z,11.51
2023-04-11T22:39:25.954Z,11.50
2023-04-11T22:41:53.437Z,11.22
2023-04-11T22:44:20.907Z,11.37
2023-04-11T22:47:08.102Z,11.53
2023-04-11T22:49:41.023Z,11.26
2023-04-11T22:52:09.361Z,11.17
2023-04-11T22:54:36.148Z,11.32
2023-04-11T22:57:02.768Z,11.28
2023-04-11T22:59:29.346Z,11.27
2023-04-11T23:01:55.974Z,11.43
2023-04-11T23:04:22.839Z,11.36
2023-04-11T23:06:53.573Z,11.52
2023-04-11T23:09:21.127Z,11.26
2023-04-11T23:11:47.860Z,11.14
2023-04-11T23:14:15.511Z,11.44
2023-04-11T23:16:43.456Z,11.68
2023-04-11T23:19:10.897Z,11.59
2023-04-11T23:21:37.892Z,11.48
2023-04-11T23:24:06.718Z,11.35
2023-04-11T23:26:33.574Z,11.38
2023-04-11T23:29:02.514Z,11.36
2023-04-11T23:31:30.223Z,11.49
2023-04-11T23:33:57.053Z,11.39
2023-04-11T23:36:23.869Z,11.35
2023-04-11T23:38:50.700Z,11.49
2023-04-11T23:41:17.253Z,11.31
2023-04-11T23:43:43.854Z,11.30
2023-04-11T23:46:11.070Z,11.31
2023-04-11T23:48:37.735Z,11.13
2023-04-11T23:51:04.614Z,11.04
2023-04-11T23:53:31.781Z,11.08
2023-04-11T23:55:58.451Z,11.06
2023-04-11T23:58:25.000Z,11.30
